La Dole, Switzerland
Current Conditions -  °F | °C
As of 2:20 PM on Monday 22 Dec 2014 (Local Time) from LSGG Reporting Station
Clear Clear  
Wind Chill: 46°   Ceiling: Unl
Heat Index: 48°   Visibility: 6mi
Dew Point: 34°   Wind: 5mph
Humidity: 57%   Direction: 230°SW
Pressure: 30.42"   Gusts: NA
Location:  46.43°N, 6.11°E
Report Text: LSGG 221320Z 23004KT 190V270 CAVOK 09/01 Q1030 NOSIG
Loading
Personal Weather Stations






























Interactive Weather Map New forecast layout! Learn more

10-Day Weather Forecast

Advertisements
Track Severe Weather on mobile